Time;durP1;ratioP1;P1;durP2;ratioP2;P2;SDS_P1;SDS_P2;PMS_P1;PMS_P2;Temp;Humidity;BMP_temperature;BMP_pressure;BME280_temperature;BME280_humidity;BME280_pressure;Samples;Min_cycle;Max_cycle;Signal;HPM_P1;HPM_P2
2021/11/09 00:00:08;;;;;;;8.85;2.63;;;20.10;48.10;;;;;;4919479;29;20081;-60
2021/11/09 00:02:34;;;;;;;8.90;2.78;;;20.10;48.00;;;;;;4919571;29;20506;-59
2021/11/09 00:05:01;;;;;;;7.50;2.55;;;20.10;48.00;;;;;;4919440;29;20024;-59
2021/11/09 00:07:34;;;;;;;7.32;2.53;;;20.10;48.00;;;;;;4919424;29;20032;-58
2021/11/09 00:10:06;;;;;;;9.48;2.78;;;20.10;48.10;;;;;;4919393;29;20048;-58
2021/11/09 00:12:35;;;;;;;8.13;2.88;;;20.10;47.90;;;;;;4919313;29;20395;-59
2021/11/09 00:15:04;;;;;;;7.07;2.40;;;20.10;47.90;;;;;;4919153;29;20024;-59
2021/11/09 00:17:29;;;;;;;6.22;2.60;;;20.10;47.90;;;;;;4919187;29;20044;-59
2021/11/09 00:19:56;;;;;;;7.55;2.75;;;20.10;48.00;;;;;;4919134;29;20036;-59
2021/11/09 00:22:23;;;;;;;8.45;3.00;;;20.10;48.00;;;;;;4919180;29;20036;-59
2021/11/09 00:24:50;;;;;;;8.95;2.40;;;20.10;48.00;;;;;;4918456;29;20024;-59
2021/11/09 00:27:16;;;;;;;7.53;2.30;;;20.10;47.90;;;;;;4919058;29;20031;-58
2021/11/09 00:29:41;;;;;;;8.20;2.20;;;20.10;48.00;;;;;;4919020;29;20037;-59
2021/11/09 00:32:08;;;;;;;6.35;2.22;;;20.10;47.90;;;;;;4919013;29;20020;-59
2021/11/09 00:34:35;;;;;;;7.90;2.40;;;20.10;48.00;;;;;;4918813;29;20048;-59
2021/11/09 00:37:03;;;;;;;6.35;2.30;;;20.10;47.90;;;;;;4918913;29;20043;-59
2021/11/09 00:39:28;;;;;;;7.22;2.63;;;20.10;47.90;;;;;;4933318;29;20115;-58
2021/11/09 00:41:54;;;;;;;7.22;2.60;;;20.10;47.90;;;;;;4918886;29;20107;-59
2021/11/09 00:44:20;;;;;;;8.48;2.92;;;20.10;47.90;;;;;;4918751;29;20032;-58
2021/11/09 00:46:45;;;;;;;7.63;2.47;;;20.10;47.80;;;;;;4933337;29;20024;-59
2021/11/09 00:49:11;;;;;;;7.70;2.58;;;20.10;47.90;;;;;;4918757;29;20032;-59
2021/11/09 00:51:37;;;;;;;8.52;2.42;;;20.10;47.80;;;;;;4918699;29;20471;-59
2021/11/09 00:54:04;;;;;;;8.00;2.55;;;20.10;47.90;;;;;;4918560;29;20032;-59
2021/11/09 00:56:30;;;;;;;6.93;2.47;;;20.10;47.80;;;;;;4918514;29;20111;-57
2021/11/09 00:58:57;;;;;;;7.05;2.53;;;20.00;47.80;;;;;;4918516;29;20046;-59
2021/11/09 01:01:23;;;;;;;9.20;2.75;;;20.10;47.80;;;;;;4918517;29;20028;-59
2021/11/09 01:03:48;;;;;;;8.27;2.80;;;20.10;47.80;;;;;;4918402;29;20028;-59
2021/11/09 01:06:14;;;;;;;12.88;3.22;;;20.00;47.80;;;;;;4918933;29;20079;-59
2021/11/09 01:08:40;;;;;;;8.68;2.78;;;20.00;47.60;;;;;;4918557;29;20090;-59
2021/11/09 01:11:06;;;;;;;9.35;2.83;;;20.00;47.70;;;;;;4918275;29;20040;-59
2021/11/09 01:13:31;;;;;;;9.50;3.35;;;20.10;47.70;;;;;;4918316;29;20103;-59
2021/11/09 01:15:58;;;;;;;8.35;2.72;;;20.10;47.70;;;;;;4918224;29;20032;-59
2021/11/09 01:18:30;;;;;;;6.35;2.55;;;20.00;47.70;;;;;;4918308;29;20108;-59
2021/11/09 01:20:57;;;;;;;8.95;2.83;;;20.00;47.70;;;;;;4932708;29;20050;-58
2021/11/09 01:23:23;;;;;;;6.88;2.25;;;20.10;47.70;;;;;;4918259;29;20347;-59
2021/11/09 01:25:49;;;;;;;8.20;2.65;;;20.00;47.70;;;;;;4918259;29;20028;-59
2021/11/09 01:28:16;;;;;;;6.55;2.40;;;20.00;47.60;;;;;;4918092;29;20039;-59
2021/11/09 01:30:43;;;;;;;7.88;2.85;;;20.00;47.60;;;;;;4917967;29;20083;-58
2021/11/09 01:33:09;;;;;;;6.60;2.85;;;20.00;47.60;;;;;;4918195;29;20035;-58
2021/11/09 01:35:36;;;;;;;8.40;3.10;;;20.00;47.60;;;;;;4915506;29;20044;-59
2021/11/09 01:38:02;;;;;;;7.43;2.75;;;20.00;47.60;;;;;;4917751;29;20048;-59
2021/11/09 01:40:28;;;;;;;8.30;2.88;;;20.00;47.50;;;;;;4917743;29;20023;-59
2021/11/09 01:42:57;;;;;;;8.85;3.05;;;20.00;47.50;;;;;;4917723;29;20040;-59
2021/11/09 01:45:23;;;;;;;8.32;3.13;;;20.00;47.60;;;;;;4917699;29;20436;-59
2021/11/09 01:47:50;;;;;;;6.63;2.70;;;20.00;47.50;;;;;;4917716;29;20064;-59
2021/11/09 01:50:21;;;;;;;7.15;3.15;;;20.00;47.50;;;;;;4917627;29;20024;-59
2021/11/09 01:52:47;;;;;;;7.82;2.72;;;20.00;47.40;;;;;;4917612;29;20487;-59
2021/11/09 01:55:17;;;;;;;8.98;3.13;;;20.00;47.40;;;;;;4916332;29;20039;-59
2021/11/09 01:57:44;;;;;;;6.55;2.50;;;20.00;47.50;;;;;;4917495;29;20040;-59
2021/11/09 02:00:17;;;;;;;7.72;2.90;;;20.00;47.40;;;;;;4931984;29;20052;-59
2021/11/09 02:02:43;;;;;;;8.45;3.08;;;20.00;47.40;;;;;;4917478;29;20111;-59
2021/11/09 02:05:10;;;;;;;8.40;3.35;;;20.00;47.40;;;;;;4917321;29;20115;-58
2021/11/09 02:07:43;;;;;;;8.70;2.55;;;20.00;47.40;;;;;;4917558;29;20032;-59
2021/11/09 02:10:08;;;;;;;8.70;3.42;;;20.00;47.40;;;;;;4917328;29;20024;-59
2021/11/09 02:12:34;;;;;;;8.10;3.20;;;20.00;47.30;;;;;;4917433;29;20480;-58
2021/11/09 02:15:00;;;;;;;8.00;3.25;;;20.00;47.30;;;;;;4917205;29;20024;-59
2021/11/09 02:17:25;;;;;;;8.98;3.20;;;20.00;47.40;;;;;;4916976;29;20039;-59
2021/11/09 02:19:51;;;;;;;6.70;3.03;;;20.00;47.40;;;;;;4917069;29;20028;-59
2021/11/09 02:22:17;;;;;;;8.27;3.10;;;20.00;47.40;;;;;;4917033;29;20392;-59
2021/11/09 02:24:44;;;;;;;9.32;3.53;;;20.00;47.40;;;;;;4917003;29;20492;-59
2021/11/09 02:27:09;;;;;;;6.53;2.85;;;20.00;47.20;;;;;;4917047;29;20032;-58
2021/11/09 02:29:36;;;;;;;9.15;3.33;;;20.00;47.30;;;;;;4931479;29;20025;-59
2021/11/09 02:32:04;;;;;;;9.75;3.30;;;20.00;47.30;;;;;;4917136;29;20032;-59
2021/11/09 02:34:29;;;;;;;7.80;3.22;;;20.00;47.30;;;;;;4916672;29;20463;-59
2021/11/09 02:36:55;;;;;;;10.70;3.88;;;20.00;47.30;;;;;;4916830;29;20072;-59
2021/11/09 02:39:20;;;;;;;9.15;3.45;;;20.00;47.20;;;;;;4917147;29;20028;-59
2021/11/09 02:41:46;;;;;;;7.93;3.00;;;20.00;47.30;;;;;;4916812;29;20067;-59
2021/11/09 02:44:12;;;;;;;9.65;3.50;;;20.00;47.20;;;;;;4931386;29;20032;-59
2021/11/09 02:46:48;;;;;;;10.30;3.20;;;20.00;47.20;;;;;;4916398;29;20084;-59
2021/11/09 02:49:27;;;;;;;7.53;2.80;;;20.00;47.30;;;;;;4917059;29;20032;-60
2021/11/09 02:51:56;;;;;;;9.32;3.78;;;20.00;47.20;;;;;;4916807;29;20031;-60
2021/11/09 02:54:25;;;;;;;8.40;3.55;;;20.00;47.20;;;;;;4916842;29;20111;-59
2021/11/09 02:56:57;;;;;;;9.55;3.78;;;20.00;47.20;;;;;;4916657;29;20031;-59
2021/11/09 03:00:18;;;;;;;7.97;3.60;;;20.00;47.20;;;;;;4916712;29;20032;-58
2021/11/09 03:05:06;;;;;;;7.93;2.97;;;19.90;47.10;;;;;;4916928;29;20043;-59
2021/11/09 03:07:42;;;;;;;8.70;3.33;;;19.90;47.10;;;;;;4916621;29;20066;-59
2021/11/09 03:10:22;;;;;;;8.35;3.65;;;20.00;47.10;;;;;;4916624;29;20028;-58
2021/11/09 03:12:48;;;;;;;9.35;3.92;;;19.90;47.20;;;;;;4916573;29;20020;-58
2021/11/09 03:15:19;;;;;;;10.32;4.32;;;19.90;47.00;;;;;;4916525;29;20089;-58
2021/11/09 03:18:06;;;;;;;8.88;3.33;;;19.90;47.10;;;;;;4916471;29;20083;-58
2021/11/09 03:40:26;;;;;;;6.40;3.05;;;19.90;46.90;;;;;;4916672;29;20034;-58
2021/11/09 03:45:37;;;;;;;8.75;3.20;;;19.90;46.80;;;;;;4916587;29;20047;-58
2021/11/09 03:48:11;;;;;;;9.77;3.92;;;19.90;46.80;;;;;;4916498;29;20111;-58
2021/11/09 03:50:38;;;;;;;;;;;19.90;46.80;;;;;;4916721;29;20043;-58
2021/11/09 03:53:23;;;;;;;8.27;3.10;;;19.90;46.80;;;;;;4916264;29;20118;-59
2021/11/09 03:58:26;;;;;;;11.77;3.70;;;19.90;46.90;;;;;;4916259;29;19915;-58
2021/11/09 04:00:57;;;;;;;7.40;3.17;;;19.90;46.80;;;;;;4919462;29;20027;-59
2021/11/09 04:06:28;;;;;;;10.30;4.00;;;19.90;46.80;;;;;;4919513;29;20035;-59
2021/11/09 04:09:01;;;;;;;7.75;3.33;;;19.80;46.70;;;;;;4918500;29;20032;-59
2021/11/09 04:14:42;;;;;;;9.93;3.38;;;19.80;46.70;;;;;;4919462;29;20487;-59
2021/11/09 04:17:04;;;;;;;7.85;3.10;;;19.80;46.70;;;;;;4913865;29;20063;-59
2021/11/09 04:19:42;;;;;;;8.13;3.20;;;19.80;46.70;;;;;;4919573;29;20032;-59
2021/11/09 04:22:58;;;;;;;8.95;3.25;;;19.80;46.60;;;;;;4919494;29;20036;-60
2021/11/09 04:27:35;;;;;;;7.35;3.17;;;19.80;46.60;;;;;;4919430;29;20468;-59
2021/11/09 04:33:24;;;;;;;9.25;3.05;;;19.80;46.60;;;;;;4919333;29;20468;-59
2021/11/09 04:42:15;;;;;;;9.43;3.50;;;19.80;46.50;;;;;;4918871;29;20443;-58
2021/11/09 04:52:38;;;;;;;8.55;3.15;;;19.80;46.50;;;;;;4918676;29;20055;-59
2021/11/09 05:10:30;;;;;;;9.18;3.65;;;19.80;46.40;;;;;;4918289;29;20063;-58
2021/11/09 05:12:56;;;;;;;9.10;3.10;;;19.80;46.40;;;;;;4918508;29;20024;-59
2021/11/09 05:15:21;;;;;;;7.75;3.20;;;19.80;46.40;;;;;;4918300;29;20047;-58
2021/11/09 05:17:47;;;;;;;9.02;3.33;;;19.80;46.40;;;;;;4918149;29;20044;-58
2021/11/09 05:20:12;;;;;;;8.00;2.95;;;19.80;46.30;;;;;;4918200;29;20476;-60
2021/11/09 05:22:38;;;;;;;7.82;3.15;;;19.90;46.30;;;;;;4918115;29;20028;-59
2021/11/09 05:25:04;;;;;;;7.47;3.22;;;19.80;46.30;;;;;;4917997;29;20024;-59
2021/11/09 05:27:30;;;;;;;7.22;3.17;;;19.90;46.30;;;;;;4918014;29;20063;-59
2021/11/09 05:29:56;;;;;;;7.95;3.22;;;19.90;46.20;;;;;;4918003;29;20594;-60
2021/11/09 05:32:22;;;;;;;7.95;3.17;;;20.00;46.30;;;;;;4917988;29;20080;-60
2021/11/09 05:34:49;;;;;;;7.50;2.88;;;20.00;46.10;;;;;;4932261;29;20052;-62
2021/11/09 05:37:19;;;;;;;10.00;3.70;;;20.00;46.20;;;;;;4917805;29;20579;-60
2021/11/09 05:39:48;;;;;;;9.82;3.50;;;20.00;46.20;;;;;;4918081;29;20022;-59
2021/11/09 05:42:14;;;;;;;8.00;3.28;;;20.00;45.90;;;;;;4932274;29;20032;-60
2021/11/09 05:44:41;;;;;;;8.15;2.83;;;20.00;46.00;;;;;;4917992;29;20039;-60
2021/11/09 05:47:06;;;;;;;6.63;2.90;;;20.10;46.10;;;;;;4917713;29;20024;-60
2021/11/09 05:49:32;;;;;;;8.10;3.22;;;20.00;46.00;;;;;;4917589;29;20028;-60
2021/11/09 05:51:59;;;;;;;8.00;3.03;;;20.10;46.00;;;;;;4917522;29;20061;-59
2021/11/09 05:54:25;;;;;;;7.25;3.20;;;20.00;46.00;;;;;;4917604;29;20020;-58
2021/11/09 05:56:50;;;;;;;8.38;3.50;;;20.10;46.00;;;;;;4917413;29;20031;-60
2021/11/09 05:59:16;;;;;;;7.80;3.05;;;20.10;45.90;;;;;;4917366;29;20035;-60
2021/11/09 06:01:42;;;;;;;8.43;3.42;;;20.10;46.00;;;;;;4917444;29;20103;-60
2021/11/09 06:04:07;;;;;;;6.85;2.88;;;20.10;45.80;;;;;;4917352;29;20119;-60
2021/11/09 06:06:33;;;;;;;8.25;3.20;;;20.10;45.90;;;;;;4917508;29;20107;-60
2021/11/09 06:08:58;;;;;;;7.95;3.50;;;20.10;45.80;;;;;;4931862;29;20067;-60
2021/11/09 06:11:24;;;;;;;7.28;2.72;;;20.10;45.70;;;;;;4917258;29;20032;-61
2021/11/09 06:13:49;;;;;;;7.22;2.97;;;20.10;45.90;;;;;;4915910;29;20035;-59
2021/11/09 06:16:15;;;;;;;8.25;3.20;;;20.10;45.60;;;;;;4917193;29;20020;-60
2021/11/09 06:18:41;;;;;;;9.85;3.33;;;20.10;45.80;;;;;;4916893;29;20106;-59
2021/11/09 06:21:07;;;;;;;8.30;2.90;;;20.10;45.70;;;;;;4931158;29;20028;-59
2021/11/09 06:23:32;;;;;;;7.68;2.80;;;20.10;45.70;;;;;;4916555;29;20031;-59
2021/11/09 06:25:58;;;;;;;8.43;3.03;;;20.10;45.60;;;;;;4916771;29;20028;-59
2021/11/09 06:28:24;;;;;;;8.30;3.10;;;20.10;45.60;;;;;;4917021;29;20028;-59
2021/11/09 06:30:53;;;;;;;8.88;2.90;;;20.10;45.60;;;;;;4916902;29;20028;-58
2021/11/09 06:33:19;;;;;;;8.05;3.05;;;20.10;45.70;;;;;;4916882;29;20076;-58
2021/11/09 06:35:45;;;;;;;10.18;3.20;;;20.10;45.50;;;;;;4916422;29;20056;-59
2021/11/09 06:38:10;;;;;;;7.80;3.00;;;20.10;45.60;;;;;;4916758;29;20040;-59
2021/11/09 06:40:36;;;;;;;10.48;3.00;;;20.10;45.70;;;;;;4931455;29;20032;-58
2021/11/09 06:43:02;;;;;;;8.57;3.05;;;20.10;45.60;;;;;;4916814;29;20028;-59
2021/11/09 06:45:28;;;;;;;7.72;2.97;;;20.10;45.60;;;;;;4916797;29;20032;-58
2021/11/09 06:47:54;;;;;;;8.77;3.35;;;20.10;45.60;;;;;;4916803;29;20024;-59
2021/11/09 06:50:21;;;;;;;8.30;3.15;;;20.10;45.60;;;;;;4916651;29;20035;-59
2021/11/09 06:52:46;;;;;;;6.28;2.72;;;20.10;45.50;;;;;;4931262;29;20032;-59
2021/11/09 06:55:12;;;;;;;8.32;3.30;;;20.10;45.60;;;;;;4916706;29;20044;-59
2021/11/09 06:57:38;;;;;;;7.28;2.97;;;20.10;45.60;;;;;;4916527;29;20052;-58
2021/11/09 07:00:07;;;;;;;7.50;2.92;;;20.10;45.60;;;;;;4916817;29;20032;-59
2021/11/09 07:02:35;;;;;;;9.05;3.50;;;20.10;45.50;;;;;;4915204;29;20055;-59
2021/11/09 07:05:01;;;;;;;7.30;2.95;;;20.10;45.50;;;;;;4931427;29;20454;-59
2021/11/09 07:07:26;;;;;;;10.18;3.35;;;20.10;45.60;;;;;;4931163;29;20123;-59
2021/11/09 07:09:52;;;;;;;6.97;2.63;;;20.10;45.60;;;;;;4931120;29;20024;-58
2021/11/09 07:12:17;;;;;;;7.35;2.72;;;20.10;45.50;;;;;;4916550;29;20032;-58
2021/11/09 07:14:43;;;;;;;6.30;2.40;;;20.10;45.60;;;;;;4916570;29;20486;-59
2021/11/09 07:17:09;;;;;;;10.27;3.00;;;20.10;45.50;;;;;;4916485;29;20116;-59
2021/11/09 07:19:36;;;;;;;9.70;3.70;;;20.10;45.40;;;;;;4916428;29;20032;-59
2021/11/09 07:22:03;;;;;;;7.75;3.15;;;20.20;45.60;;;;;;4916356;29;20535;-58
2021/11/09 07:24:31;;;;;;;10.32;3.30;;;20.10;45.50;;;;;;4930889;29;20051;-58
2021/11/09 07:26:57;;;;;;;8.00;3.00;;;20.20;45.50;;;;;;4930958;29;20032;-59
2021/11/09 07:29:23;;;;;;;9.20;3.67;;;20.10;45.40;;;;;;4916031;29;20476;-59
2021/11/09 07:31:50;;;;;;;7.45;2.80;;;20.10;45.40;;;;;;4910815;29;20043;-59
2021/11/09 07:34:15;;;;;;;10.88;3.80;;;20.20;45.70;;;;;;4909140;29;20055;-59
2021/11/09 07:36:41;;;;;;;11.15;3.97;;;20.10;45.60;;;;;;4913628;29;20032;-59
2021/11/09 07:39:07;;;;;;;6.75;2.38;;;20.20;45.40;;;;;;4918206;29;20119;-58
2021/11/09 07:41:33;;;;;;;6.93;3.03;;;20.20;45.60;;;;;;4917840;29;20023;-59
2021/11/09 07:44:02;;;;;;;9.07;2.70;;;20.20;45.50;;;;;;4911296;29;20398;-59
2021/11/09 07:46:28;;;;;;;7.90;3.22;;;20.20;45.70;;;;;;4911480;29;20020;-59
2021/11/09 07:48:54;;;;;;;8.38;2.97;;;20.30;45.60;;;;;;4918519;29;20099;-59
2021/11/09 07:51:21;;;;;;;7.53;2.60;;;20.20;45.40;;;;;;4917630;29;20463;-59
2021/11/09 07:53:48;;;;;;;8.20;2.83;;;20.20;45.40;;;;;;4917103;29;20127;-59
2021/11/09 07:56:18;;;;;;;8.07;3.13;;;20.20;45.60;;;;;;4907689;29;20113;-58
2021/11/09 07:58:54;;;;;;;7.95;3.22;;;20.20;45.70;;;;;;4914419;29;20123;-59
2021/11/09 08:01:29;;;;;;;8.60;3.75;;;20.30;45.70;;;;;;4918023;29;20040;-59
2021/11/09 08:11:17;;;;;;;10.73;3.30;;;20.20;45.80;;;;;;4916902;29;20040;-60
2021/11/09 08:13:43;;;;;;;6.65;3.15;;;20.20;45.80;;;;;;4917187;29;20173;-59
2021/11/09 08:16:08;;;;;;;8.68;3.05;;;20.30;45.90;;;;;;4907561;29;20024;-60
2021/11/09 08:18:34;;;;;;;9.90;3.25;;;20.30;45.90;;;;;;4916715;29;20291;-59
2021/11/09 08:21:00;;;;;;;9.02;3.63;;;20.30;45.90;;;;;;4916789;29;20028;-59
2021/11/09 08:23:27;;;;;;;10.93;3.92;;;20.30;45.90;;;;;;4917673;29;20368;-59
2021/11/09 08:25:53;;;;;;;8.13;3.10;;;20.30;45.90;;;;;;4904272;29;20472;-60
2021/11/09 08:28:19;;;;;;;8.43;3.45;;;20.30;46.00;;;;;;4915326;29;20607;-60
2021/11/09 08:30:47;;;;;;;9.55;3.30;;;20.30;46.00;;;;;;4915308;29;20043;-59
2021/11/09 08:33:14;;;;;;;10.23;2.90;;;20.30;45.90;;;;;;4915279;29;20032;-59
2021/11/09 08:35:39;;;;;;;8.30;3.25;;;20.30;46.00;;;;;;4902399;29;20091;-59
2021/11/09 08:38:06;;;;;;;8.57;3.20;;;20.30;46.00;;;;;;4917488;29;20044;-58
2021/11/09 08:40:33;;;;;;;6.53;2.80;;;20.30;45.90;;;;;;4918149;29;20484;-59
2021/11/09 08:43:00;;;;;;;7.35;2.83;;;20.30;46.00;;;;;;4915819;29;20079;-59
2021/11/09 08:45:32;;;;;;;8.25;3.35;;;20.30;46.00;;;;;;4900301;29;20024;-58
2021/11/09 08:48:36;;;;;;;6.78;2.67;;;20.30;45.90;;;;;;4916124;29;20028;-58
2021/11/09 08:50:54;;;;;;;8.52;2.97;;;20.40;45.90;;;;;;4912196;29;20046;-58
2021/11/09 08:53:36;;;;;;;8.68;2.92;;;20.40;45.90;;;;;;4916334;29;20084;-59
2021/11/09 09:04:18;;;;;;;9.43;3.45;;;20.40;46.00;;;;;;4908652;29;20040;-61
2021/11/09 09:06:53;;;;;;;7.03;2.85;;;20.40;45.90;;;;;;4910638;29;20028;-57
2021/11/09 09:09:18;;;;;;;8.80;3.08;;;20.40;45.90;;;;;;4916946;29;20042;-60
2021/11/09 09:11:45;;;;;;;8.05;3.30;;;20.40;45.90;;;;;;4916894;29;20373;-60
2021/11/09 09:14:12;;;;;;;7.78;3.00;;;20.40;45.90;;;;;;4914648;29;20032;-60
2021/11/09 09:16:43;;;;;;;9.18;3.35;;;20.40;45.90;;;;;;4915512;29;20028;-60
2021/11/09 09:19:09;;;;;;;7.22;2.75;;;20.50;45.80;;;;;;4916420;29;20052;-59
2021/11/09 09:21:39;;;;;;;6.50;2.50;;;20.50;45.90;;;;;;4916227;29;20024;-57
2021/11/09 09:24:23;;;;;;;8.43;2.75;;;20.50;45.90;;;;;;4915655;29;20024;-59
2021/11/09 09:55:57;;;;;;;9.02;2.95;;;20.60;45.70;;;;;;4915498;29;20040;-59
2021/11/09 09:58:24;;;;;;;9.93;2.92;;;20.60;45.80;;;;;;4908149;29;20095;-59
2021/11/09 10:00:50;;;;;;;7.18;2.88;;;20.70;45.70;;;;;;4912113;29;20024;-59
2021/11/09 10:03:16;;;;;;;8.48;2.85;;;20.70;45.70;;;;;;4914449;29;20032;-59
2021/11/09 10:05:42;;;;;;;8.20;3.03;;;20.70;45.70;;;;;;4913362;29;20031;-59
2021/11/09 10:08:18;;;;;;;6.63;2.47;;;20.70;45.70;;;;;;4910327;29;20031;-59
2021/11/09 10:10:45;;;;;;;7.63;2.92;;;20.70;45.60;;;;;;4907037;29;20028;-59
2021/11/09 10:13:14;;;;;;;7.38;2.88;;;20.80;45.50;;;;;;4910560;29;20091;-60
2021/11/09 10:15:47;;;;;;;9.68;2.95;;;20.80;45.60;;;;;;4914072;29;20380;-59
2021/11/09 10:18:16;;;;;;;7.00;2.60;;;20.80;45.50;;;;;;4912410;29;20100;-59
2021/11/09 10:20:46;;;;;;;10.13;3.28;;;20.80;45.40;;;;;;4910918;29;20032;-58
2021/11/09 10:23:23;;;;;;;8.48;2.80;;;20.90;45.40;;;;;;4916076;29;20495;-59
2021/11/09 10:25:52;;;;;;;7.65;2.92;;;20.90;45.40;;;;;;4915953;29;20056;-59
2021/11/09 10:28:21;;;;;;;9.05;2.70;;;20.90;45.40;;;;;;4909914;29;20403;-58
2021/11/09 10:31:03;;;;;;;6.97;2.92;;;20.90;45.40;;;;;;4912012;29;20028;-59
2021/11/09 10:33:35;;;;;;;7.78;3.08;;;20.90;45.40;;;;;;4911797;29;20095;-59
2021/11/09 10:36:02;;;;;;;7.47;2.80;;;20.80;45.50;;;;;;4914367;29;20040;-59
2021/11/09 10:38:32;;;;;;;8.18;3.10;;;20.80;45.70;;;;;;4905903;29;20491;-59
2021/11/09 10:40:59;;;;;;;8.68;2.47;;;20.80;45.80;;;;;;4912636;29;20356;-59
2021/11/09 10:43:30;;;;;;;5.75;2.45;;;20.80;45.60;;;;;;4915400;29;20051;-59
2021/11/09 10:45:56;;;;;;;7.47;2.70;;;20.90;45.50;;;;;;4914991;29;20032;-60
2021/11/09 10:48:23;;;;;;;7.40;2.58;;;20.80;45.50;;;;;;4909151;29;20494;-55
2021/11/09 10:50:52;;;;;;;8.10;2.70;;;20.80;45.50;;;;;;4911992;29;20027;-59
2021/11/09 11:06:29;;;;;;;8.05;2.67;;;20.80;45.70;;;;;;4912819;29;20099;-58
2021/11/09 11:09:12;;;;;;;7.50;2.47;;;20.80;45.70;;;;;;4905236;29;20044;-58
2021/11/09 11:11:48;;;;;;;5.53;2.30;;;20.80;45.60;;;;;;4918122;29;20494;-58
2021/11/09 11:14:22;;;;;;;7.28;3.20;;;20.80;45.70;;;;;;4899153;29;20056;-57
2021/11/09 11:17:20;;;;;;;7.43;2.58;;;20.80;45.70;;;;;;4898364;29;20378;-60
2021/11/09 11:19:47;;;;;;;5.03;2.25;;;20.70;45.70;;;;;;4895190;29;20036;-60
2021/11/09 11:22:20;;;;;;;5.93;2.30;;;20.80;45.60;;;;;;4918274;29;20131;-59
2021/11/09 11:24:48;;;;;;;7.90;2.45;;;20.70;45.60;;;;;;4916918;29;20035;-59
2021/11/09 11:27:15;;;;;;;7.93;2.67;;;20.70;45.70;;;;;;4917740;29;20031;-58
2021/11/09 11:29:42;;;;;;;8.65;2.95;;;20.70;45.60;;;;;;4909585;29;20037;-58
2021/11/09 11:32:10;;;;;;;9.02;2.80;;;20.70;45.60;;;;;;4919134;29;20079;-59
2021/11/09 11:34:36;;;;;;;8.35;2.50;;;20.70;45.60;;;;;;4919446;29;20044;-59
2021/11/09 11:37:02;;;;;;;6.90;2.72;;;20.70;45.70;;;;;;4919480;29;20052;-59
2021/11/09 11:39:31;;;;;;;7.57;2.58;;;20.70;45.60;;;;;;4910722;29;20040;-60
2021/11/09 11:42:08;;;;;;;7.28;2.25;;;20.70;45.70;;;;;;4916651;29;20060;-57
2021/11/09 11:44:37;;;;;;;6.70;2.35;;;20.70;45.70;;;;;;4915549;29;20032;-58
2021/11/09 11:47:23;;;;;;;5.45;2.25;;;20.70;45.60;;;;;;4918305;29;20020;-59
2021/11/09 11:49:57;;;;;;;8.32;2.78;;;20.80;45.50;;;;;;4907769;29;20365;-57
2021/11/09 11:52:40;;;;;;;6.90;2.17;;;20.70;45.50;;;;;;4918371;29;20031;-55
2021/11/09 11:55:21;;;;;;;7.57;2.47;;;20.70;45.60;;;;;;4918625;29;20555;-58
2021/11/09 11:58:12;;;;;;;6.07;2.40;;;20.70;45.60;;;;;;4912810;29;20032;-57
2021/11/09 12:00:48;;;;;;;9.05;2.63;;;20.70;45.70;;;;;;4912489;29;20024;-59
2021/11/09 12:03:23;;;;;;;6.43;2.30;;;20.70;45.70;;;;;;4919289;29;20048;-58
2021/11/09 12:05:51;;;;;;;7.72;2.30;;;20.70;45.60;;;;;;4918056;29;20312;-58
2021/11/09 12:08:39;;;;;;;8.40;2.80;;;20.70;45.60;;;;;;4912211;29;20617;-59
2021/11/09 12:11:46;;;;;;;7.70;2.50;;;20.70;45.70;;;;;;4912710;29;20490;-59
2021/11/09 12:14:14;;;;;;;5.05;1.73;;;20.70;45.70;;;;;;4909209;29;20480;-59
2021/11/09 12:16:45;;;;;;;7.75;3.00;;;20.60;45.70;;;;;;4918050;29;20040;-59
2021/11/09 12:19:37;;;;;;;6.95;2.47;;;20.70;45.70;;;;;;4923477;29;20447;-58
2021/11/09 12:22:12;;;;;;;6.25;2.20;;;20.60;45.70;;;;;;4924583;29;20084;-59
2021/11/09 12:24:55;;;;;;;6.60;2.45;;;20.60;45.70;;;;;;4912789;29;20024;-58
2021/11/09 12:27:29;;;;;;;7.28;2.33;;;20.60;45.80;;;;;;4920627;29;20016;-60
2021/11/09 12:29:55;;;;;;;6.60;2.40;;;20.60;45.90;;;;;;4898188;29;20400;-60
2021/11/09 12:32:21;;;;;;;6.80;2.25;;;20.70;45.80;;;;;;4917098;29;20028;-59
2021/11/09 12:35:13;;;;;;;6.13;2.10;;;20.70;45.90;;;;;;4917689;29;20056;-57
2021/11/09 12:37:40;;;;;;;6.47;2.60;;;20.60;45.90;;;;;;4906472;29;20032;-60
2021/11/09 12:40:45;;;;;;;5.18;2.13;;;20.60;45.90;;;;;;4923130;29;20545;-59
2021/11/09 12:43:24;;;;;;;9.23;2.38;;;20.60;45.90;;;;;;4895281;29;20029;-59
2021/11/09 12:46:13;;;;;;;6.63;2.05;;;20.60;45.90;;;;;;4895874;29;20024;-59
2021/11/09 12:48:49;;;;;;;6.28;2.45;;;20.60;45.90;;;;;;4905518;29;20365;-59
2021/11/09 12:51:16;;;;;;;7.45;1.92;;;20.60;45.90;;;;;;4913726;29;20024;-58
2021/11/09 12:53:44;;;;;;;5.53;2.00;;;20.50;45.90;;;;;;4916664;29;20028;-59
2021/11/09 12:56:42;;;;;;;6.45;2.30;;;20.60;46.00;;;;;;4916336;29;20027;-59
2021/11/09 13:09:25;;;;;;;7.05;2.10;;;20.60;46.00;;;;;;4915596;29;20020;-54
2021/11/09 13:12:00;;;;;;;7.82;2.38;;;20.60;46.00;;;;;;4916437;29;20039;-55
2021/11/09 13:14:51;;;;;;;6.50;2.10;;;20.60;46.00;;;;;;4913327;29;20110;-55
2021/11/09 13:17:22;;;;;;;5.38;1.90;;;20.60;46.00;;;;;;4913470;29;20095;-54
2021/11/09 13:20:03;;;;;;;6.95;2.20;;;20.60;46.00;;;;;;4916090;29;20024;-53
2021/11/09 13:22:29;;;;;;;6.70;2.10;;;20.60;46.00;;;;;;4914603;29;20084;-51
2021/11/09 13:24:58;;;;;;;7.10;2.17;;;20.60;46.00;;;;;;4913838;29;20032;-53
2021/11/09 13:27:43;;;;;;;6.30;2.00;;;20.60;46.00;;;;;;4910360;29;20539;-48
2021/11/09 13:30:14;;;;;;;4.75;1.67;;;20.70;45.90;;;;;;4915426;29;20036;-51
2021/11/09 13:32:42;;;;;;;4.47;1.88;;;20.70;45.90;;;;;;4916579;29;20357;-48
2021/11/09 13:35:26;;;;;;;7.28;2.55;;;20.70;45.90;;;;;;4915873;29;20120;-50
2021/11/09 13:38:05;;;;;;;3.80;1.75;;;20.60;46.00;;;;;;4916251;29;20043;-48
2021/11/09 13:40:32;;;;;;;5.03;1.60;;;20.60;46.10;;;;;;4915954;29;20048;-52
2021/11/09 13:43:03;;;;;;;5.65;2.13;;;20.60;46.10;;;;;;4916029;29;20028;-49
2021/11/09 13:45:29;;;;;;;6.20;1.90;;;20.50;46.10;;;;;;4916546;29;20103;-52
2021/11/09 13:47:55;;;;;;;4.10;1.92;;;20.50;46.10;;;;;;4917171;29;20028;-49
2021/11/09 13:50:21;;;;;;;5.97;1.60;;;20.50;46.10;;;;;;4916973;29;20035;-49
2021/11/09 13:52:49;;;;;;;6.07;2.00;;;20.50;46.10;;;;;;4917277;29;20388;-50
2021/11/09 13:55:16;;;;;;;5.65;1.85;;;20.50;46.10;;;;;;4917623;29;20020;-50
2021/11/09 13:57:43;;;;;;;7.05;2.08;;;20.50;46.10;;;;;;4917271;29;20107;-51
2021/11/09 14:00:24;;;;;;;5.85;1.83;;;20.50;46.10;;;;;;4917388;29;20036;-54
2021/11/09 14:03:05;;;;;;;5.45;1.73;;;20.50;46.10;;;;;;4917245;29;20051;-51
2021/11/09 14:05:54;;;;;;;5.05;1.45;;;20.50;46.10;;;;;;4917645;29;20043;-51
2021/11/09 14:08:53;;;;;;;6.68;2.00;;;20.50;46.10;;;;;;4917660;29;20035;-48
2021/11/09 14:11:59;;;;;;;3.95;1.70;;;20.50;46.10;;;;;;4916847;29;20032;-49
2021/11/09 14:16:51;;;;;;;5.97;2.40;;;20.50;46.10;;;;;;4917464;29;20043;-48
2021/11/09 14:19:28;;;;;;;5.40;1.83;;;20.50;46.10;;;;;;4917127;29;20047;-48
2021/11/09 14:21:57;;;;;;;4.93;1.73;;;20.50;46.10;;;;;;4917357;29;20028;-51
2021/11/09 14:24:27;;;;;;;5.22;2.03;;;20.50;46.10;;;;;;4916998;29;20407;-48
2021/11/09 14:27:00;;;;;;;4.88;1.67;;;20.50;46.20;;;;;;4917255;29;20365;-51
2021/11/09 14:29:26;;;;;;;4.50;2.05;;;20.50;46.20;;;;;;4917053;29;20107;-54
2021/11/09 14:32:08;;;;;;;5.97;2.08;;;20.50;46.10;;;;;;4916988;29;20080;-52
2021/11/09 14:34:35;;;;;;;6.22;2.10;;;20.50;46.10;;;;;;4916979;29;20492;-51
2021/11/09 14:37:31;;;;;;;6.32;2.17;;;20.50;46.10;;;;;;4916677;29;20488;-50
2021/11/09 14:40:07;;;;;;;5.63;1.70;;;20.50;46.10;;;;;;4906865;29;20047;-51
2021/11/09 14:45:36;;;;;;;4.57;1.70;;;20.50;46.00;;;;;;4909119;29;20132;-51
2021/11/09 14:48:09;;;;;;;6.88;1.88;;;20.50;46.00;;;;;;4908753;29;20427;-52
2021/11/09 14:53:34;;;;;;;5.05;1.85;;;20.50;46.10;;;;;;4908950;29;20483;-52
2021/11/09 14:56:08;;;;;;;4.50;1.60;;;20.50;46.00;;;;;;4909129;29;20102;-49
2021/11/09 14:58:45;;;;;;;4.82;1.80;;;20.50;46.00;;;;;;4909755;29;20044;-50
2021/11/09 15:02:08;;;;;;;4.28;1.50;;;20.50;46.00;;;;;;4908317;29;20044;-54
2021/11/09 15:07:21;;;;;;;7.40;1.77;;;20.50;46.10;;;;;;4910124;29;20032;-54
2021/11/09 15:13:27;;;;;;;5.63;1.85;;;20.50;46.00;;;;;;4907162;29;20059;-48
2021/11/09 15:30:09;;;;;;;3.70;1.48;;;20.50;46.10;;;;;;4916504;29;20064;-51
2021/11/09 15:32:13;;;;;;;4.75;1.55;;;20.50;46.20;;;;;;4907460;29;20044;-53
2021/11/09 15:39:49;;;;;;;5.43;1.80;;;20.50;46.20;;;;;;4916255;29;20100;-52
2021/11/09 15:42:16;;;;;;;3.67;1.55;;;20.60;46.30;;;;;;4915883;29;20539;-51
2021/11/09 15:44:43;;;;;;;7.72;2.10;;;20.60;46.20;;;;;;4915883;29;20052;-50
2021/11/09 15:47:08;;;;;;;5.97;1.65;;;20.50;46.20;;;;;;4916003;29;20059;-48
2021/11/09 15:49:34;;;;;;;4.68;1.75;;;20.50;46.10;;;;;;4916209;29;20075;-49
2021/11/09 15:52:00;;;;;;;4.72;1.50;;;20.60;46.20;;;;;;4915965;29;20380;-50